Time;durP1;ratioP1;P1;durP2;ratioP2;P2;SDS_P1;SDS_P2;PMS_P1;PMS_P2;Temp;Humidity;BMP_temperature;BMP_pressure;BME280_temperature;BME280_humidity;BME280_pressure;Samples;Min_cycle;Max_cycle;Signal;HPM_P1;HPM_P2
2022/11/17 00:01:47;;;;;;;;;;;;;;;6.56;79.46;99507.25;5061676;28;20327;-34
2022/11/17 00:04:12;;;;;;;;;;;;;;;6.54;79.86;99509.91;5060158;28;20431;-34
2022/11/17 00:06:37;;;;;;;;;;;;;;;6.54;79.99;99504.66;5068345;28;20419;-34
2022/11/17 00:09:02;;;;;;;;;;;;;;;6.53;79.87;99505.53;5064313;28;20418;-34
2022/11/17 00:14:31;;;;;;;;;;;;;;;6.52;79.66;99504.69;5062359;28;20369;-34
2022/11/17 00:14:31;;;;;;;;;;;;;;;6.52;79.72;99491.56;5067187;28;20286;-34
2022/11/17 00:16:56;;;;;;;;;;;;;;;6.51;79.72;99489.81;5066425;28;19964;-34
2022/11/17 00:22:05;;;;;;;;;;;;;;;6.49;79.35;99481.13;5061543;28;19947;-34
2022/11/17 00:24:31;;;;;;;;;;;;;;;6.48;79.72;99479.41;5070166;28;20362;-34
2022/11/17 00:27:02;;;;;;;;;;;;;;;6.45;79.46;99484.66;5066061;28;20281;-34
2022/11/17 00:29:27;;;;;;;;;;;;;;;6.46;79.21;99485.50;5068852;28;20267;-33
2022/11/17 00:34:36;;;;;;;;;;;;;;;6.44;79.37;99482.94;5069244;28;20033;-34
2022/11/17 00:37:02;;;;;;;;;;;;;;;6.43;79.26;99486.41;5047960;28;19924;-33
2022/11/17 00:39:27;;;;;;;;;;;;;;;6.42;79.33;99487.31;5074567;28;19955;-34
2022/11/17 00:41:52;;;;;;;;;;;;;;;6.41;79.18;99486.44;5073918;28;19916;-34
2022/11/17 00:44:17;;;;;;;;;;;;;;;6.41;79.47;99488.22;5072820;28;19969;-34
2022/11/17 00:46:43;;;;;;;;;;;;;;;6.40;79.08;99486.44;5066203;28;19917;-34
2022/11/17 00:49:08;;;;;;;;;;;;;;;6.39;79.26;99487.34;5073779;28;19948;-34
2022/11/17 00:51:34;;;;;;;;;;;;;;;6.38;79.44;99488.25;5062861;28;19969;-33
2022/11/17 00:54:03;;;;;;;;;;;;;;;6.38;79.47;99485.63;5068746;28;19931;-34
2022/11/17 00:56:28;;;;;;;;;;;;;;;6.36;79.43;99483.00;5050734;28;20271;-34
2022/11/17 00:58:53;;;;;;;;;;;;;;;6.36;79.34;99479.50;5068641;28;19923;-34
2022/11/17 01:01:19;;;;;;;;;;;;;;;6.35;79.33;99472.56;5067766;28;20400;-33
2022/11/17 01:03:44;;;;;;;;;;;;;;;6.33;79.55;99469.94;5067489;28;19917;-34
2022/11/17 01:06:10;;;;;;;;;;;;;;;6.33;79.45;99475.19;5065844;28;19916;-32
2022/11/17 01:08:35;;;;;;;;;;;;;;;6.32;79.48;99467.34;5073982;28;19926;-33
2022/11/17 01:11:05;;;;;;;;;;;;;;;6.33;79.42;99463.88;5049583;28;19929;-34
2022/11/17 01:13:30;;;;;;;;;;;;;;;6.31;79.26;99458.63;5053322;28;19944;-34
2022/11/17 01:16:00;;;;;;;;;;;;;;;6.31;79.16;99460.38;5068295;28;19954;-34
2022/11/17 01:18:26;;;;;;;;;;;;;;;6.30;79.47;99459.50;5073653;28;20016;-34
2022/11/17 01:20:51;;;;;;;;;;;;;;;6.31;79.12;99455.13;5063988;28;19920;-34
2022/11/17 01:23:16;;;;;;;;;;;;;;;6.27;79.21;99449.94;5061320;28;19928;-33
2022/11/17 01:25:41;;;;;;;;;;;;;;;6.26;79.47;99448.19;5070642;28;19955;-33
2022/11/17 01:28:07;;;;;;;;;;;;;;;6.26;79.52;99442.97;5071691;28;20296;-34
2022/11/17 01:30:32;;;;;;;;;;;;;;;6.25;79.02;99436.00;5068354;28;20482;-34
2022/11/17 01:32:57;;;;;;;;;;;;;;;6.25;79.44;99441.25;5070889;28;19916;-34
2022/11/17 01:35:22;;;;;;;;;;;;;;;6.24;79.48;99452.56;5068938;28;19943;-34
2022/11/17 01:37:47;;;;;;;;;;;;;;;6.23;79.15;99450.84;5071770;28;20297;-34
2022/11/17 01:40:13;;;;;;;;;;;;;;;6.22;79.61;99450.88;5068958;28;20607;-34
2022/11/17 01:42:38;;;;;;;;;;;;;;;6.22;79.18;99433.41;5037385;28;19916;-34
2022/11/17 01:45:16;;;;;;;;;;;;;;;6.19;79.44;99436.06;5065131;28;20301;-34
2022/11/17 01:47:43;;;;;;;;;;;;;;;6.20;79.16;99432.56;5052033;28;19916;-33
2022/11/17 01:50:08;;;;;;;;;;;;;;;6.20;79.23;99447.41;5067926;28;20297;-34
2022/11/17 01:52:34;;;;;;;;;;;;;;;6.18;79.77;99444.81;5050665;28;19917;-34
2022/11/17 01:54:59;;;;;;;;;;;;;;;6.16;79.74;99433.47;5049200;28;19943;-34
2022/11/17 01:57:26;;;;;;;;;;;;;;;6.18;79.52;99439.56;5072045;28;19928;-34
2022/11/17 01:59:53;;;;;;;;;;;;;;;6.16;79.61;99436.09;5049221;28;19920;-34
2022/11/17 02:02:18;;;;;;;;;;;;;;;6.18;79.27;99438.69;5065457;28;19924;-34
2022/11/17 02:04:46;;;;;;;;;;;;;;;6.16;79.68;99436.09;5066489;28;19917;-34
2022/11/17 02:07:17;;;;;;;;;;;;;;;6.16;79.64;99443.94;5051684;28;19916;-34
2022/11/17 02:09:42;;;;;;;;;;;;;;;6.14;79.62;99441.34;5064306;28;19924;-34
2022/11/17 02:12:08;;;;;;;;;;;;;;;6.13;79.63;99420.41;5067536;28;19998;-34
2022/11/17 02:14:33;;;;;;;;;;;;;;;6.12;79.19;99416.94;5049310;28;19916;-34
2022/11/17 02:16:59;;;;;;;;;;;;;;;6.14;79.18;99417.78;5072932;28;19927;-34
2022/11/17 02:19:24;;;;;;;;;;;;;;;6.12;79.68;99419.56;5053116;28;19970;-34
2022/11/17 02:22:10;;;;;;;;;;;;;;;6.13;79.15;99420.41;5046762;28;20201;-34
2022/11/17 02:25:04;;;;;;;;;;;;;;;6.11;79.61;99419.56;5070537;28;19936;-34
2022/11/17 02:27:34;;;;;;;;;;;;;;;6.11;79.17;99430.03;5001461;28;19930;-34
2022/11/17 02:30:12;;;;;;;;;;;;;;;6.09;79.53;99416.09;5069046;28;19916;-33
2022/11/17 02:32:57;;;;;;;;;;;;;;;6.09;79.28;99423.94;5051684;28;20274;-34
2022/11/17 02:35:37;;;;;;;;;;;;;;;6.07;79.63;99412.63;5069621;28;19917;-34
2022/11/17 02:38:06;;;;;;;;;;;;;;;6.08;79.67;99411.75;5049423;28;20466;-34
2022/11/17 02:40:51;;;;;;;;;;;;;;;6.07;79.16;99405.63;5065753;28;19916;-34
2022/11/17 02:46:01;;;;;;;;;;;;;;;6.06;79.50;99403.06;5054284;28;19962;-34
2022/11/17 02:48:31;;;;;;;;;;;;;;;6.05;79.29;99390.84;5068818;28;19964;-34
2022/11/17 02:50:56;;;;;;;;;;;;;;;6.06;79.36;99397.81;5059571;28;20266;-33
2022/11/17 02:53:22;;;;;;;;;;;;;;;6.04;79.50;99390.00;5044613;28;19924;-34
2022/11/17 02:55:50;;;;;;;;;;;;;;;6.05;79.26;99388.22;5035652;28;20289;-34
2022/11/17 02:58:16;;;;;;;;;;;;;;;6.05;79.23;99380.38;5049831;28;20388;-34
2022/11/17 03:00:45;;;;;;;;;;;;;;;6.04;79.43;99374.28;5071223;28;19916;-34
2022/11/17 03:03:19;;;;;;;;;;;;;;;6.02;79.75;99368.16;5067268;28;19917;-34
2022/11/17 03:06:03;;;;;;;;;;;;;;;6.01;79.50;99369.03;5049805;28;19963;-34
2022/11/17 03:08:39;;;;;;;;;;;;;;;6.00;79.08;99368.16;5048567;28;19917;-34
2022/11/17 03:11:05;;;;;;;;;;;;;;;6.01;79.11;99369.88;5050273;28;20007;-34
2022/11/17 03:13:31;;;;;;;;;;;;;;;6.00;79.06;99362.94;5049462;28;19920;-34
2022/11/17 03:16:04;;;;;;;;;;;;;;;6.00;79.21;99362.09;5067846;28;20392;-34
2022/11/17 03:18:34;;;;;;;;;;;;;;;5.99;79.28;99376.91;5047489;28;20396;-34
2022/11/17 03:20:59;;;;;;;;;;;;;;;5.99;79.11;99373.41;5050576;28;19916;-34
2022/11/17 03:23:29;;;;;;;;;;;;;;;5.97;79.40;99364.72;5053743;28;20003;-34
2022/11/17 03:25:56;;;;;;;;;;;;;;;5.96;79.76;99350.78;5060227;28;19917;-34
2022/11/17 03:28:22;;;;;;;;;;;;;;;5.98;79.32;99351.63;5046671;28;19926;-34
2022/11/17 03:30:47;;;;;;;;;;;;;;;5.97;79.35;99356.88;5049311;28;20014;-34
2022/11/17 03:33:14;;;;;;;;;;;;;;;5.96;79.38;99360.34;5048474;28;20288;-34
2022/11/17 03:35:40;;;;;;;;;;;;;;;5.95;79.59;99354.28;5046086;28;19924;-34
2022/11/17 03:38:08;;;;;;;;;;;;;;;5.95;79.89;99356.91;5064623;28;19939;-34
2022/11/17 03:40:34;;;;;;;;;;;;;;;5.95;79.38;99354.28;5063743;28;19966;-34
2022/11/17 03:43:00;;;;;;;;;;;;;;;5.94;79.27;99342.09;5051212;28;19924;-34
2022/11/17 03:45:26;;;;;;;;;;;;;;;5.93;79.28;99334.25;5052858;28;19925;-34
2022/11/17 03:48:24;;;;;;;;;;;;;;;5.95;79.78;99333.34;5066997;28;20042;-34
2022/11/17 03:51:24;;;;;;;;;;;;;;;5.93;79.69;99327.25;5019411;28;19916;-34
2022/11/17 03:53:50;;;;;;;;;;;;;;;5.92;79.28;99325.53;4989722;28;19921;-34
2022/11/17 03:56:36;;;;;;;;;;;;;;;5.93;79.29;99331.63;5049489;28;20404;-34
2022/11/17 03:59:02;;;;;;;;;;;;;;;5.91;79.81;99326.41;5050315;28;19917;-34
2022/11/17 04:01:28;;;;;;;;;;;;;;;5.91;79.34;99347.34;5051589;28;19974;-33
2022/11/17 04:03:53;;;;;;;;;;;;;;;5.90;79.19;99346.47;5047774;28;19952;-33
2022/11/17 04:06:18;;;;;;;;;;;;;;;5.90;79.64;99336.00;5066855;28;19923;-34
2022/11/17 04:08:43;;;;;;;;;;;;;;;5.90;79.09;99337.75;5056932;28;19923;-34
2022/11/17 04:16:36;;;;;;;;;;;;;;;5.87;79.38;99341.25;5071081;28;20427;-34
2022/11/17 04:19:02;;;;;;;;;;;;;;;5.88;79.05;99336.91;5071724;28;19920;-34
2022/11/17 04:21:27;;;;;;;;;;;;;;;5.84;79.75;99340.44;5068610;28;20292;-34
2022/11/17 04:23:52;;;;;;;;;;;;;;;5.83;79.44;99338.72;5070234;28;20320;-34
2022/11/17 04:29:01;;;;;;;;;;;;;;;5.83;79.43;99343.97;5071001;28;19939;-34
2022/11/17 04:31:27;;;;;;;;;;;;;;;5.82;79.83;99344.81;5041691;28;19917;-34
2022/11/17 04:33:53;;;;;;;;;;;;;;;5.82;79.62;99347.44;5071399;28;19921;-34
2022/11/17 04:36:19;;;;;;;;;;;;;;;5.81;79.30;99343.09;5070247;28;19921;-34
2022/11/17 04:38:49;;;;;;;;;;;;;;;5.77;79.68;99343.13;5069005;28;19923;-34
2022/11/17 04:43:59;;;;;;;;;;;;;;;5.77;79.63;99326.56;5053242;28;19962;-32
2022/11/17 04:46:24;;;;;;;;;;;;;;;5.76;79.38;99320.47;5038432;28;20334;-34
2022/11/17 04:48:50;;;;;;;;;;;;;;;5.77;79.57;99314.34;5062788;28;19917;-34
2022/11/17 04:51:16;;;;;;;;;;;;;;;5.74;79.58;99309.13;5049918;28;20015;-34
2022/11/17 04:53:42;;;;;;;;;;;;;;;5.73;79.47;99307.41;5066791;28;20011;-34
2022/11/17 04:56:07;;;;;;;;;;;;;;;5.73;79.22;99307.41;5049850;28;19916;-34
2022/11/17 04:58:32;;;;;;;;;;;;;;;5.73;79.45;99307.41;5064429;28;19920;-34
2022/11/17 05:01:11;;;;;;;;;;;;;;;5.71;79.64;99314.44;5059137;28;20007;-34
2022/11/17 05:03:37;;;;;;;;;;;;;;;5.70;79.76;99314.44;5047786;28;20399;-33
2022/11/17 05:06:02;;;;;;;;;;;;;;;5.70;79.49;99311.81;5062326;28;20178;-34
2022/11/17 05:08:28;;;;;;;;;;;;;;;5.70;79.52;99303.97;5061372;28;19916;-34
2022/11/17 05:13:39;;;;;;;;;;;;;;;5.69;79.68;99287.41;5069207;28;19970;-34
2022/11/17 05:18:48;;;;;;;;;;;;;;;5.71;79.18;99285.66;5069645;28;20285;-34
2022/11/17 05:21:14;;;;;;;;;;;;;;;5.70;79.61;99281.28;5045966;28;19917;-34
2022/11/17 05:23:54;;;;;;;;;;;;;;;5.68;79.42;99287.41;5074081;28;20420;-34
2022/11/17 05:26:29;;;;;;;;;;;;;;;5.67;79.03;99291.75;5071237;28;19924;-34
2022/11/17 05:28:55;;;;;;;;;;;;;;;5.66;79.11;99295.28;5061502;28;19925;-32
2022/11/17 05:31:20;;;;;;;;;;;;;;;5.65;79.52;99290.94;5048200;28;20011;-34
2022/11/17 05:33:45;;;;;;;;;;;;;;;5.65;79.41;99283.09;5073179;28;20437;-34
2022/11/17 05:36:11;;;;;;;;;;;;;;;5.63;79.03;99274.38;5067041;28;19974;-33
2022/11/17 05:38:36;;;;;;;;;;;;;;;5.64;79.37;99265.66;5050512;28;19916;-34
2022/11/17 05:41:01;;;;;;;;;;;;;;;5.64;79.38;99263.06;5072219;28;19924;-34
2022/11/17 05:43:27;;;;;;;;;;;;;;;5.63;79.49;99256.06;5055680;28;19971;-34
2022/11/17 05:45:52;;;;;;;;;;;;;;;5.63;79.35;99249.09;5072816;28;19923;-34
2022/11/17 05:48:17;;;;;;;;;;;;;;;5.63;79.12;99249.09;5051152;28;19916;-34
2022/11/17 05:50:42;;;;;;;;;;;;;;;5.63;79.46;99253.44;5067757;28;19924;-34
2022/11/17 05:53:08;;;;;;;;;;;;;;;5.62;79.52;99243.88;5064453;28;19999;-34
2022/11/17 05:55:33;;;;;;;;;;;;;;;5.60;79.60;99222.97;5071682;28;19999;-34
2022/11/17 05:58:02;;;;;;;;;;;;;;;5.61;78.88;99235.16;5072454;28;20015;-34
2022/11/17 06:00:28;;;;;;;;;;;;;;;5.62;78.87;99230.81;5039300;28;20011;-33
2022/11/17 06:02:57;;;;;;;;;;;;;;;5.62;79.26;99230.81;5065529;28;20004;-34
2022/11/17 06:05:24;;;;;;;;;;;;;;;5.62;78.84;99226.44;5071976;28;19917;-34
2022/11/17 06:07:50;;;;;;;;;;;;;;;5.60;79.59;99215.13;5060480;28;19979;-34
2022/11/17 06:10:15;;;;;;;;;;;;;;;5.60;78.97;99202.03;5050278;28;19912;-34
2022/11/17 06:12:40;;;;;;;;;;;;;;;5.60;79.04;99201.19;5057570;28;20408;-34
2022/11/17 06:15:05;;;;;;;;;;;;;;;5.59;79.51;99215.13;5068766;28;19917;-33
2022/11/17 06:17:32;;;;;;;;;;;;;;;5.58;79.18;99208.19;5071350;28;19974;-34
2022/11/17 06:20:08;;;;;;;;;;;;;;;5.58;79.30;99203.81;5066970;28;20347;-34
2022/11/17 06:22:33;;;;;;;;;;;;;;;5.57;79.04;99201.22;5073994;28;19916;-34
2022/11/17 06:24:58;;;;;;;;;;;;;;;5.58;78.84;99205.56;5073163;28;19936;-34
2022/11/17 06:27:24;;;;;;;;;;;;;;;5.59;79.05;99209.91;5057449;28;20365;-33
2022/11/17 06:29:49;;;;;;;;;;;;;;;5.57;79.02;99201.22;5072570;28;19928;-34
2022/11/17 06:32:15;;;;;;;;;;;;;;;5.56;79.26;99199.47;5070648;28;20392;-34
2022/11/17 06:34:41;;;;;;;;;;;;;;;5.56;78.81;99194.25;5065774;28;20357;-34
2022/11/17 06:37:06;;;;;;;;;;;;;;;5.56;79.23;99196.84;5055391;28;19921;-34
2022/11/17 06:39:31;;;;;;;;;;;;;;;5.55;79.28;99200.38;5073288;28;19919;-34
2022/11/17 06:41:56;;;;;;;;;;;;;;;5.52;79.63;99198.66;5072443;28;19912;-34
2022/11/17 06:44:22;;;;;;;;;;;;;;;5.52;79.30;99194.31;5070578;28;19912;-34
2022/11/17 06:46:47;;;;;;;;;;;;;;;5.54;79.31;99211.72;5053481;28;19928;-34
2022/11/17 06:49:12;;;;;;;;;;;;;;;5.51;79.02;99213.47;5054750;28;19916;-34
2022/11/17 06:51:37;;;;;;;;;;;;;;;5.52;79.28;99214.34;5069927;28;20004;-34
2022/11/17 06:54:03;;;;;;;;;;;;;;;5.52;78.97;99220.47;5067823;28;20344;-34
2022/11/17 06:56:28;;;;;;;;;;;;;;;5.50;79.28;99222.22;5055210;28;19917;-34
2022/11/17 06:58:54;;;;;;;;;;;;;;;5.51;79.45;99238.78;5057966;28;20484;-34
2022/11/17 07:01:19;;;;;;;;;;;;;;;5.52;79.48;99230.03;5065019;28;19962;-34
2022/11/17 07:03:44;;;;;;;;;;;;;;;5.49;79.04;99241.41;5054717;28;19912;-34
2022/11/17 07:06:10;;;;;;;;;;;;;;;5.49;79.42;99230.94;5072915;28;19919;-34
2022/11/17 07:08:36;;;;;;;;;;;;;;;5.49;79.06;99227.47;5072875;28;19919;-34
2022/11/17 07:11:13;;;;;;;;;;;;;;;5.45;79.14;99224.03;5050722;28;19939;-34
2022/11/17 07:13:39;;;;;;;;;;;;;;;5.42;79.52;99218.81;5072338;28;20377;-34
2022/11/17 07:16:14;;;;;;;;;;;;;;;5.44;79.81;99217.03;5072696;28;19999;-34
2022/11/17 07:18:42;;;;;;;;;;;;;;;5.42;79.36;99224.06;5061143;28;19923;-34
2022/11/17 07:21:09;;;;;;;;;;;;;;;5.40;79.44;99225.81;5065672;28;19920;-34
2022/11/17 07:23:35;;;;;;;;;;;;;;;5.38;79.62;99202.28;5072175;28;19999;-34
2022/11/17 07:26:00;;;;;;;;;;;;;;;5.40;80.17;99199.66;5053422;28;20016;-34
2022/11/17 07:28:26;;;;;;;;;;;;;;;5.42;80.08;99197.91;5072515;28;19966;-34
2022/11/17 07:30:51;;;;;;;;;;;;;;;5.44;79.29;99193.50;5070180;28;20400;-34
2022/11/17 07:33:17;;;;;;;;;;;;;;;5.44;79.45;99198.75;5072295;28;19958;-34
2022/11/17 07:35:42;;;;;;;;;;;;;;;5.46;79.69;99198.72;5068797;28;19940;-34
2022/11/17 07:38:07;;;;;;;;;;;;;;;5.41;79.74;99183.13;5072662;28;20381;-34
2022/11/17 07:40:32;;;;;;;;;;;;;;;5.43;79.21;99189.16;5069981;28;19920;-34
2022/11/17 07:42:58;;;;;;;;;;;;;;;5.41;79.43;99183.13;5066539;28;19912;-34
2022/11/17 07:45:23;;;;;;;;;;;;;;;5.40;79.75;99189.19;5072383;28;19916;-34
2022/11/17 07:47:55;;;;;;;;;;;;;;;5.41;79.91;99183.13;5072137;28;19997;-34
2022/11/17 07:50:20;;;;;;;;;;;;;;;5.41;79.60;99180.50;5068707;28;19928;-34
2022/11/17 07:52:46;;;;;;;;;;;;;;;5.41;79.56;99185.72;5068172;28;19925;-34
2022/11/17 07:55:12;;;;;;;;;;;;;;;5.42;80.09;99176.13;5066527;28;19916;-34
2022/11/17 07:57:37;;;;;;;;;;;;;;;5.41;79.77;99184.84;5070438;28;19920;-34
2022/11/17 08:00:02;;;;;;;;;;;;;;;5.40;80.33;99168.28;5053591;28;20346;-34
2022/11/17 08:02:28;;;;;;;;;;;;;;;5.39;80.15;99172.66;5071914;28;20354;-34
2022/11/17 08:04:53;;;;;;;;;;;;;;;5.37;80.13;99173.56;5069945;28;19926;-34
2022/11/17 08:07:18;;;;;;;;;;;;;;;5.37;79.84;99169.19;5071782;28;20430;-34
2022/11/17 08:09:43;;;;;;;;;;;;;;;5.37;79.63;99168.34;5071922;28;20335;-34
2022/11/17 08:12:08;;;;;;;;;;;;;;;5.38;80.17;99172.69;5071760;28;19973;-34
2022/11/17 08:14:34;;;;;;;;;;;;;;;5.37;79.98;99163.13;5070910;28;19917;-34
2022/11/17 08:16:59;;;;;;;;;;;;;;;5.37;80.12;99158.72;5070998;28;19920;-34
2022/11/17 08:19:24;;;;;;;;;;;;;;;5.38;80.30;99164.84;5069818;28;20011;-34
2022/11/17 08:21:49;;;;;;;;;;;;;;;5.38;80.09;99164.84;5071528;28;19913;-34
2022/11/17 08:24:15;;;;;;;;;;;;;;;5.36;80.53;99169.22;5070341;28;19916;-34
2022/11/17 08:26:40;;;;;;;;;;;;;;;5.35;80.45;99164.88;5063455;28;19912;-34
2022/11/17 08:29:05;;;;;;;;;;;;;;;5.35;80.72;99162.25;5072027;28;19912;-34
2022/11/17 08:31:31;;;;;;;;;;;;;;;5.34;80.73;99157.91;5071588;28;20323;-33
2022/11/17 08:33:56;;;;;;;;;;;;;;;5.33;80.90;99157.03;5067128;28;19925;-34
2022/11/17 08:36:21;;;;;;;;;;;;;;;5.34;80.89;99157.91;5068068;28;19920;-34
2022/11/17 08:38:46;;;;;;;;;;;;;;;5.32;80.96;99147.47;5060517;28;19920;-34
2022/11/17 08:41:12;;;;;;;;;;;;;;;5.32;80.43;99142.25;5053280;28;19912;-34
2022/11/17 08:43:37;;;;;;;;;;;;;;;5.33;80.58;99148.34;5052695;28;19965;-34
2022/11/17 08:46:02;;;;;;;;;;;;;;;5.34;80.54;99144.84;5070785;28;19928;-34
2022/11/17 08:48:31;;;;;;;;;;;;;;;5.33;80.43;99151.81;5071550;28;19912;-34
2022/11/17 08:50:57;;;;;;;;;;;;;;;5.34;80.79;99157.91;5071648;28;19920;-34
2022/11/17 08:53:22;;;;;;;;;;;;;;;5.34;80.45;99150.06;5075604;28;19919;-34
2022/11/17 08:55:48;;;;;;;;;;;;;;;5.36;80.84;99156.13;5074268;28;19917;-34
2022/11/17 08:58:13;;;;;;;;;;;;;;;5.34;81.13;99150.91;5075255;28;20011;-34
2022/11/17 09:00:38;;;;;;;;;;;;;;;5.33;80.88;99143.13;5074943;28;20286;-34
2022/11/17 09:03:05;;;;;;;;;;;;;;;5.34;81.25;99147.47;5057313;28;19919;-34
2022/11/17 09:05:30;;;;;;;;;;;;;;;5.33;81.19;99136.13;5068808;28;19920;-34
2022/11/17 09:07:55;;;;;;;;;;;;;;;5.33;80.86;99132.66;5075146;28;20331;-34
2022/11/17 09:10:21;;;;;;;;;;;;;;;5.34;81.02;99144.84;5056826;28;20328;-34
2022/11/17 09:12:46;;;;;;;;;;;;;;;5.33;81.02;99141.34;5075364;28;19995;-34
2022/11/17 09:15:11;;;;;;;;;;;;;;;5.33;81.50;99132.66;5074042;28;20004;-34
2022/11/17 09:17:36;;;;;;;;;;;;;;;5.34;81.47;99137.00;5074044;28;19921;-34
2022/11/17 09:20:01;;;;;;;;;;;;;;;5.32;81.48;99138.75;5056583;28;19912;-34
2022/11/17 09:22:27;;;;;;;;;;;;;;;5.32;81.26;99137.03;5075081;28;19912;-34
2022/11/17 09:24:52;;;;;;;;;;;;;;;5.34;81.53;99131.78;5054914;28;20347;-34
2022/11/17 09:27:17;;;;;;;;;;;;;;;5.34;81.54;99132.63;5068697;28;20308;-34
2022/11/17 09:29:42;;;;;;;;;;;;;;;5.35;81.29;99139.59;5074396;28;19956;-34
2022/11/17 09:32:08;;;;;;;;;;;;;;;5.35;80.94;99143.94;5073511;28;19916;-34
2022/11/17 09:34:33;;;;;;;;;;;;;;;5.34;81.30;99153.53;5074484;28;19923;-33
2022/11/17 09:36:58;;;;;;;;;;;;;;;5.35;81.26;99152.66;5056332;28;19921;-34
2022/11/17 09:39:23;;;;;;;;;;;;;;;5.37;81.54;99140.44;5074405;28;19920;-34
2022/11/17 09:41:49;;;;;;;;;;;;;;;5.36;81.78;99124.75;5072794;28;19917;-34
2022/11/17 09:44:14;;;;;;;;;;;;;;;5.37;81.74;99129.13;5074412;28;19912;-34
2022/11/17 09:46:42;;;;;;;;;;;;;;;5.39;81.88;99124.72;5074392;28;20262;-34
2022/11/17 09:49:34;;;;;;;;;;;;;;;5.38;81.56;99115.16;5074538;28;19912;-34
2022/11/17 09:52:00;;;;;;;;;;;;;;;5.41;81.76;99095.94;5062954;28;19916;-34
2022/11/17 09:54:29;;;;;;;;;;;;;;;5.40;81.44;99089.84;5055842;28;19959;-34
2022/11/17 09:56:54;;;;;;;;;;;;;;;5.39;81.44;99083.75;5055893;28;20415;-34
2022/11/17 09:59:19;;;;;;;;;;;;;;;5.41;81.31;99095.94;5074205;28;19962;-34
2022/11/17 10:01:45;;;;;;;;;;;;;;;5.41;81.43;99090.72;5054414;28;19999;-34
2022/11/17 10:04:11;;;;;;;;;;;;;;;5.43;82.28;99095.03;5055952;28;20377;-34
2022/11/17 10:06:36;;;;;;;;;;;;;;;5.42;81.63;99088.09;5056678;28;20065;-33
2022/11/17 10:09:01;;;;;;;;;;;;;;;5.41;81.99;99085.50;5055292;28;20003;-34
2022/11/17 10:11:36;;;;;;;;;;;;;;;5.42;82.57;99081.97;5072906;28;19921;-34
2022/11/17 10:14:02;;;;;;;;;;;;;;;5.44;81.63;99078.44;5073687;28;20392;-34
2022/11/17 10:16:27;;;;;;;;;;;;;;;5.45;81.96;99072.34;5073570;28;19916;-34
2022/11/17 10:18:52;;;;;;;;;;;;;;;5.45;82.45;99071.47;5073880;28;19923;-34
2022/11/17 10:21:18;;;;;;;;;;;;;;;5.45;82.33;99067.13;5071286;28;19916;-33
2022/11/17 10:23:44;;;;;;;;;;;;;;;5.47;82.45;99062.72;5069509;28;19928;-34
2022/11/17 10:26:10;;;;;;;;;;;;;;;5.47;81.99;99060.09;5064918;28;19963;-34
2022/11/17 10:28:35;;;;;;;;;;;;;;;5.49;82.18;99067.94;5073319;28;19916;-34
2022/11/17 10:31:02;;;;;;;;;;;;;;;5.51;82.56;99059.19;5055332;28;19919;-34
2022/11/17 10:33:34;;;;;;;;;;;;;;;5.50;82.38;99060.06;5072021;28;19922;-34
2022/11/17 10:36:00;;;;;;;;;;;;;;;5.52;81.98;99062.66;5073584;28;19912;-34
2022/11/17 10:38:27;;;;;;;;;;;;;;;5.54;81.91;99060.03;5073140;28;19986;-34
2022/11/17 10:40:53;;;;;;;;;;;;;;;5.54;82.27;99065.25;5052626;28;19917;-34
2022/11/17 10:43:25;;;;;;;;;;;;;;;5.55;82.18;99062.63;5054722;28;19917;-33
2022/11/17 10:45:54;;;;;;;;;;;;;;;5.57;81.78;99054.75;5034996;28;19928;-34
2022/11/17 10:48:19;;;;;;;;;;;;;;;5.56;82.44;99047.78;5053494;28;19916;-34
2022/11/17 10:50:51;;;;;;;;;;;;;;;5.57;81.92;99041.69;5053048;28;20335;-34
2022/11/17 10:53:21;;;;;;;;;;;;;;;5.57;82.12;99041.69;5053170;28;20385;-34
2022/11/17 10:55:48;;;;;;;;;;;;;;;5.57;82.27;99041.69;5055268;28;19913;-34
2022/11/17 10:58:23;;;;;;;;;;;;;;;5.57;82.48;99033.84;5054878;28;20373;-34
2022/11/17 11:00:52;;;;;;;;;;;;;;;5.58;82.38;99040.78;5054133;28;19917;-34
2022/11/17 11:03:19;;;;;;;;;;;;;;;5.59;82.73;99037.28;5072021;28;19923;-34
2022/11/17 11:05:56;;;;;;;;;;;;;;;5.59;82.63;99032.03;5072754;28;19916;-33
2022/11/17 11:08:23;;;;;;;;;;;;;;;5.60;82.34;99018.09;5065670;28;19917;-34
2022/11/17 11:10:49;;;;;;;;;;;;;;;5.60;82.41;99018.09;5052459;28;20289;-33
2022/11/17 11:13:19;;;;;;;;;;;;;;;5.60;82.58;99008.50;5072179;28;19999;-34
2022/11/17 11:15:45;;;;;;;;;;;;;;;5.61;82.67;99009.38;5053456;28;19917;-34
2022/11/17 11:18:11;;;;;;;;;;;;;;;5.60;82.14;99002.41;5052924;28;19921;-34
2022/11/17 11:20:42;;;;;;;;;;;;;;;5.62;82.33;99003.25;5052682;28;19992;-34
2022/11/17 11:23:17;;;;;;;;;;;;;;;5.63;82.51;99007.56;5070213;28;19952;-33
2022/11/17 11:25:56;;;;;;;;;;;;;;;5.62;82.73;99009.34;5046662;28;19919;-34
2022/11/17 11:28:40;;;;;;;;;;;;;;;5.62;82.55;99005.84;5072585;28;19940;-34
2022/11/17 11:31:24;;;;;;;;;;;;;;;5.62;82.15;98991.03;5071583;28;19912;-34
2022/11/17 11:33:49;;;;;;;;;;;;;;;5.62;82.14;98993.66;5072438;28;19920;-34
2022/11/17 11:36:33;;;;;;;;;;;;;;;5.63;82.22;98987.53;5054072;28;19912;-34
2022/11/17 11:39:17;;;;;;;;;;;;;;;5.63;82.33;98986.66;5072307;28;19920;-34
2022/11/17 11:41:54;;;;;;;;;;;;;;;5.62;82.36;98985.81;5059305;28;19964;-34
2022/11/17 11:44:58;;;;;;;;;;;;;;;5.65;82.55;98984.88;5072228;28;19912;-34
2022/11/17 11:47:23;;;;;;;;;;;;;;;5.63;82.39;98965.72;4971042;28;19946;-34
2022/11/17 11:49:55;;;;;;;;;;;;;;;5.65;82.85;98974.41;4970337;28;19918;-34
2022/11/17 11:52:21;;;;;;;;;;;;;;;5.65;82.31;98970.06;5020283;28;19916;-33
2022/11/17 11:54:54;;;;;;;;;;;;;;;5.67;82.33;98987.47;5054016;28;19912;-33
2022/11/17 11:57:21;;;;;;;;;;;;;;;5.67;82.63;98993.56;5064079;28;19921;-34
2022/11/17 11:59:51;;;;;;;;;;;;;;;5.67;82.74;98990.94;5067179;28;20320;-33
2022/11/17 12:02:16;;;;;;;;;;;;;;;5.68;82.84;98995.31;5054074;28;19928;-34
2022/11/17 12:04:41;;;;;;;;;;;;;;;5.67;82.90;98988.31;5066214;28;19917;-34
2022/11/17 12:07:07;;;;;;;;;;;;;;;5.68;82.83;98989.19;5051850;28;19966;-34
2022/11/17 12:09:35;;;;;;;;;;;;;;;5.67;82.95;98977.84;5064217;28;19917;-34
2022/11/17 12:12:00;;;;;;;;;;;;;;;5.67;82.55;98988.31;5071717;28;19912;-34
2022/11/17 12:14:29;;;;;;;;;;;;;;;5.68;83.11;98990.06;5072138;28;19919;-34
2022/11/17 12:17:00;;;;;;;;;;;;;;;5.69;83.08;98983.94;5070684;28;19990;-34
2022/11/17 12:19:43;;;;;;;;;;;;;;;5.70;83.00;98992.66;5068525;28;19917;-34
2022/11/17 12:22:14;;;;;;;;;;;;;;;5.70;83.45;98988.28;5053703;28;19916;-34
2022/11/17 12:24:39;;;;;;;;;;;;;;;5.72;83.17;98994.38;5072002;28;19916;-34
2022/11/17 12:27:23;;;;;;;;;;;;;;;5.74;83.22;98989.94;5076310;28;20422;-34
2022/11/17 12:29:48;;;;;;;;;;;;;;;5.75;83.23;98990.81;5074557;28;19920;-34
2022/11/17 12:32:33;;;;;;;;;;;;;;;5.75;82.89;98986.47;5074751;28;19962;-34
2022/11/17 12:35:16;;;;;;;;;;;;;;;5.77;83.01;98989.06;5058298;28;19967;-34
2022/11/17 12:37:42;;;;;;;;;;;;;;;5.79;83.05;98989.88;5055899;28;19917;-34
2022/11/17 12:40:08;;;;;;;;;;;;;;;5.80;82.47;98988.16;5056762;28;19966;-34
2022/11/17 12:42:34;;;;;;;;;;;;;;;5.81;82.78;99000.34;5074963;28;20397;-34
2022/11/17 12:45:00;;;;;;;;;;;;;;;5.82;82.60;98988.97;5075587;28;19920;-34
2022/11/17 12:47:32;;;;;;;;;;;;;;;5.81;83.04;98984.63;5075636;28;19927;-34
2022/11/17 12:49:58;;;;;;;;;;;;;;;5.83;82.88;98983.72;5050688;28;20385;-34
2022/11/17 12:52:30;;;;;;;;;;;;;;;5.84;83.03;98995.91;5073428;28;19948;-34
2022/11/17 12:55:01;;;;;;;;;;;;;;;5.85;82.94;98981.06;5057233;28;19916;-34
2022/11/17 12:57:27;;;;;;;;;;;;;;;5.86;82.45;98988.03;5056953;28;19921;-34
2022/11/17 13:00:06;;;;;;;;;;;;;;;5.87;82.87;98985.38;5048571;28;19989;-34
2022/11/17 13:02:31;;;;;;;;;;;;;;;5.86;82.63;98975.81;5075349;28;20015;-34
2022/11/17 13:04:59;;;;;;;;;;;;;;;5.87;82.83;98982.75;5075054;28;20357;-34
2022/11/17 13:07:25;;;;;;;;;;;;;;;5.88;83.04;98981.03;5075096;28;19923;-34
2022/11/17 13:09:51;;;;;;;;;;;;;;;5.89;83.21;98977.50;5074064;28;19913;-34
2022/11/17 13:12:20;;;;;;;;;;;;;;;5.90;82.92;98976.59;5071482;28;19925;-33
2022/11/17 13:14:55;;;;;;;;;;;;;;;5.91;82.69;98983.59;5054894;28;20434;-34
2022/11/17 13:17:27;;;;;;;;;;;;;;;5.91;82.79;98978.38;5055044;28;20381;-34
2022/11/17 13:20:11;;;;;;;;;;;;;;;5.91;83.17;98981.81;5042594;28;20046;-34
2022/11/17 13:22:36;;;;;;;;;;;;;;;5.89;83.38;98970.53;5058125;28;19916;-34
2022/11/17 13:25:11;;;;;;;;;;;;;;;5.92;83.04;98977.47;5074635;28;19912;-34
2022/11/17 13:27:41;;;;;;;;;;;;;;;5.93;83.32;98979.19;5074603;28;19916;-34